createdAt,value
2018-04-23T00:00:59.793Z,3.07
2018-04-23T00:03:26.259Z,3.23
2018-04-23T00:05:52.680Z,3.33
2018-04-23T00:08:19.119Z,3.40
2018-04-23T00:10:45.577Z,3.70
2018-04-23T00:13:12.036Z,3.30
2018-04-23T00:15:38.554Z,3.27
2018-04-23T00:18:05.044Z,4.00
2018-04-23T00:20:31.500Z,3.33
2018-04-23T00:22:57.935Z,3.40
2018-04-23T00:25:24.489Z,3.17
2018-04-23T00:27:50.863Z,3.37
2018-04-23T00:30:17.203Z,3.07
2018-04-23T00:32:43.577Z,3.63
2018-04-23T00:35:10.074Z,2.93
2018-04-23T00:37:36.525Z,4.20
2018-04-23T00:40:02.990Z,3.33
2018-04-23T00:42:29.356Z,3.77
2018-04-23T00:44:55.869Z,3.33
2018-04-23T00:47:22.362Z,3.80
2018-04-23T00:49:48.724Z,3.30
2018-04-23T00:52:15.057Z,3.07
2018-04-23T00:54:41.501Z,2.90
2018-04-23T00:57:08.024Z,3.10
2018-04-23T00:59:34.392Z,3.43
2018-04-23T01:02:00.753Z,3.27
2018-04-23T01:04:27.065Z,3.67
2018-04-23T01:06:53.541Z,3.30
2018-04-23T01:09:19.935Z,3.47
2018-04-23T01:11:46.270Z,2.83
2018-04-23T01:14:12.719Z,2.97
2018-04-23T01:16:39.247Z,3.53
2018-04-23T01:19:05.665Z,3.73
2018-04-23T01:21:32.039Z,3.80
2018-04-23T01:23:58.506Z,3.47
2018-04-23T01:26:24.971Z,3.60
2018-04-23T01:28:51.383Z,3.63
2018-04-23T01:31:17.895Z,3.27
2018-04-23T01:33:44.409Z,3.43
2018-04-23T01:36:10.826Z,3.40
2018-04-23T01:38:37.224Z,3.20
2018-04-23T01:41:03.705Z,3.50
2018-04-23T01:43:30.111Z,3.47
2018-04-23T01:45:56.613Z,3.57
2018-04-23T01:48:23.051Z,3.50
2018-04-23T01:50:49.475Z,3.50
2018-04-23T01:53:15.911Z,3.37
2018-04-23T01:55:42.414Z,3.40
2018-04-23T01:58:08.794Z,3.27
2018-04-23T02:00:35.346Z,3.93
2018-04-23T02:03:01.762Z,3.50
2018-04-23T02:05:28.249Z,3.30
2018-04-23T02:07:54.627Z,4.10
2018-04-23T02:10:21.001Z,3.50
2018-04-23T02:12:47.343Z,3.83
2018-04-23T02:15:13.716Z,4.10
2018-04-23T02:17:40.060Z,4.10
2018-04-23T02:20:06.433Z,3.57
2018-04-23T02:22:32.820Z,3.47
2018-04-23T02:24:59.136Z,3.50
2018-04-23T02:27:25.602Z,4.00
2018-04-23T02:29:52.044Z,3.40
2018-04-23T02:32:18.473Z,3.70
2018-04-23T02:34:44.850Z,3.60
2018-04-23T02:37:11.381Z,3.63
2018-04-23T02:39:37.785Z,3.50
2018-04-23T02:42:04.249Z,3.47
2018-04-23T02:44:30.681Z,3.50
2018-04-23T02:46:57.129Z,3.83
2018-04-23T02:49:23.464Z,3.50
2018-04-23T02:51:49.896Z,3.90
2018-04-23T02:54:16.234Z,3.80
2018-04-23T02:56:42.723Z,4.40
2018-04-23T02:59:09.086Z,3.70
2018-04-23T03:01:35.743Z,3.97
2018-04-23T03:04:02.195Z,3.70
2018-04-23T03:06:28.598Z,3.63
2018-04-23T03:08:55.007Z,3.70
2018-04-23T03:11:21.316Z,3.50
2018-04-23T03:13:47.649Z,3.93
2018-04-23T03:16:14.136Z,4.07
2018-04-23T03:18:40.572Z,3.67
2018-04-23T03:21:07.030Z,3.80
2018-04-23T03:23:33.499Z,4.53
2018-04-23T03:25:59.943Z,3.90
2018-04-23T03:28:26.324Z,4.03
2018-04-23T03:30:52.734Z,3.57
2018-04-23T03:33:19.086Z,3.87
2018-04-23T03:35:46.562Z,3.77
2018-04-23T03:38:13.032Z,3.60
2018-04-23T03:40:39.400Z,3.33
2018-04-23T03:43:05.736Z,4.33
2018-04-23T03:45:32.227Z,4.20
2018-04-23T03:47:58.602Z,4.30
2018-04-23T03:50:24.964Z,3.90
2018-04-23T03:52:51.407Z,4.03
2018-04-23T03:55:17.879Z,3.77
2018-04-23T03:57:44.329Z,4.07
2018-04-23T04:00:10.769Z,4.47
2018-04-23T04:02:37.096Z,4.30
2018-04-23T04:05:03.571Z,4.10
2018-04-23T04:07:30.117Z,3.50
2018-04-23T04:09:56.546Z,3.23
2018-04-23T04:12:35.013Z,3.67
2018-04-23T04:15:13.648Z,3.10
2018-04-23T04:20:54.305Z,4.00
2018-04-23T04:23:20.997Z,3.50
2018-04-23T04:25:47.402Z,3.43
2018-04-23T04:28:13.786Z,3.70
2018-04-23T04:30:40.173Z,2.90
2018-04-23T04:33:06.504Z,3.60
2018-04-23T04:35:33.068Z,3.13
2018-04-23T04:37:59.625Z,3.60
2018-04-23T04:40:26.090Z,3.67
2018-04-23T04:42:52.514Z,3.80
2018-04-23T04:45:19.065Z,3.67
2018-04-23T04:47:45.647Z,3.97
2018-04-23T04:50:12.108Z,3.80
2018-04-23T04:52:38.497Z,3.83
2018-04-23T04:55:04.877Z,3.73
2018-04-23T04:57:31.311Z,4.33
2018-04-23T04:59:57.743Z,3.90
2018-04-23T05:02:24.075Z,3.70
2018-04-23T05:04:50.487Z,4.00
2018-04-23T05:07:16.994Z,3.83
2018-04-23T05:09:43.346Z,3.80
2018-04-23T05:12:09.817Z,3.43
2018-04-23T05:14:36.197Z,4.30
2018-04-23T05:17:03.074Z,4.27
2018-04-23T05:19:29.503Z,4.53
2018-04-23T05:21:55.869Z,4.13
2018-04-23T05:24:22.342Z,4.00
2018-04-23T05:26:48.785Z,4.60
2018-04-23T05:29:15.262Z,4.27
2018-04-23T05:31:41.714Z,4.10
2018-04-23T05:34:08.198Z,4.00
2018-04-23T05:36:34.769Z,4.63
2018-04-23T05:39:01.313Z,3.70
2018-04-23T05:41:27.842Z,4.93
2018-04-23T05:43:54.283Z,5.03
2018-04-23T05:46:20.941Z,4.57
2018-04-23T05:48:48.416Z,5.13
2018-04-23T05:51:15.668Z,4.80
2018-04-23T05:53:42.264Z,4.97
2018-04-23T05:56:08.796Z,5.00
2018-04-23T05:58:35.204Z,5.37
2018-04-23T06:01:01.734Z,5.00
2018-04-23T06:03:28.270Z,5.10
2018-04-23T06:05:54.798Z,4.57
2018-04-23T06:08:22.357Z,4.53
2018-04-23T06:10:48.781Z,4.33
2018-04-23T06:13:15.156Z,4.17
2018-04-23T06:15:41.740Z,4.30
2018-04-23T06:18:08.236Z,4.27
2018-04-23T06:20:34.674Z,4.60
2018-04-23T06:23:01.192Z,4.33
2018-04-23T06:25:27.658Z,4.30
2018-04-23T06:27:55.205Z,4.20
2018-04-23T06:30:21.802Z,4.40
2018-04-23T06:32:48.205Z,4.33
2018-04-23T06:35:14.625Z,4.87
2018-04-23T06:37:41.139Z,4.87
2018-04-23T06:40:07.652Z,4.00
2018-04-23T06:42:34.142Z,4.80
2018-04-23T06:45:00.734Z,4.40
2018-04-23T06:47:28.204Z,4.73
2018-04-23T06:49:54.621Z,4.00
2018-04-23T06:52:21.113Z,4.13
2018-04-23T06:54:47.719Z,3.70
2018-04-23T06:57:14.115Z,4.33
2018-04-23T06:59:40.582Z,4.10
2018-04-23T07:02:07.143Z,4.60
2018-04-23T07:04:33.787Z,4.00
2018-04-23T07:07:00.522Z,4.00
2018-04-23T07:09:27.016Z,4.50
2018-04-23T07:11:53.463Z,4.73
2018-04-23T07:14:19.905Z,3.90
2018-04-23T07:16:46.308Z,3.90
2018-04-23T07:19:12.672Z,3.77
2018-04-23T07:21:39.061Z,4.07
2018-04-23T07:24:05.468Z,4.27
2018-04-23T07:26:31.968Z,3.63
2018-04-23T07:28:58.352Z,4.03
2018-04-23T07:31:24.788Z,3.80
2018-04-23T07:33:51.275Z,4.20
2018-04-23T07:36:17.977Z,3.90
2018-04-23T07:38:44.413Z,4.07
2018-04-23T07:41:10.791Z,3.70
2018-04-23T07:43:37.233Z,3.57
2018-04-23T07:46:04.634Z,4.33
2018-04-23T07:48:31.010Z,3.90
2018-04-23T07:50:57.432Z,3.70
2018-04-23T07:53:23.856Z,4.43
2018-04-23T07:55:50.296Z,4.03
2018-04-23T07:58:16.767Z,4.73
2018-04-23T08:00:43.184Z,4.53
2018-04-23T08:03:09.573Z,4.27
2018-04-23T08:05:36.097Z,4.17
2018-04-23T08:08:02.664Z,4.83
2018-04-23T08:10:29.013Z,4.60
2018-04-23T08:12:55.470Z,4.87
2018-04-23T08:15:21.843Z,4.00
2018-04-23T08:17:49.354Z,3.57
2018-04-23T08:20:15.758Z,4.07
2018-04-23T08:22:42.136Z,3.60
2018-04-23T08:25:08.499Z,4.03
2018-04-23T08:27:34.949Z,2.77
2018-04-23T08:30:01.320Z,3.10
2018-04-23T08:32:27.736Z,3.10
2018-04-23T08:34:54.158Z,3.47
2018-04-23T08:37:20.607Z,3.23
2018-04-23T08:39:47.081Z,3.13
2018-04-23T08:42:13.546Z,3.80
2018-04-23T08:44:39.980Z,2.97
2018-04-23T08:47:07.407Z,2.97
2018-04-23T08:49:33.880Z,2.87
2018-04-23T08:52:00.746Z,3.10
2018-04-23T08:54:27.331Z,2.87
2018-04-23T08:56:58.737Z,3.27
2018-04-23T08:59:25.160Z,2.90
2018-04-23T09:01:51.574Z,2.60
2018-04-23T09:04:17.969Z,2.73
2018-04-23T09:06:44.454Z,2.33
2018-04-23T09:09:11.205Z,2.80
2018-04-23T09:11:37.774Z,3.00
2018-04-23T09:14:04.296Z,2.90
2018-04-23T09:16:31.700Z,2.83
2018-04-23T09:18:58.154Z,2.33
2018-04-23T09:21:24.598Z,2.53
2018-04-23T09:23:50.943Z,2.60
2018-04-23T09:26:18.507Z,2.57
2018-04-23T09:28:44.902Z,2.47
2018-04-23T09:31:11.329Z,2.87
2018-04-23T09:33:37.782Z,3.07
2018-04-23T09:36:04.209Z,2.57
2018-04-23T09:38:30.583Z,3.00
2018-04-23T09:40:57.070Z,2.67
2018-04-23T09:43:23.574Z,2.53
2018-04-23T09:45:49.935Z,2.30
2018-04-23T09:48:16.360Z,2.57
2018-04-23T09:50:42.677Z,2.10
2018-04-23T09:53:09.017Z,2.00
2018-04-23T09:55:35.424Z,2.17
2018-04-23T09:58:02.885Z,2.50
2018-04-23T10:00:31.082Z,1.93
2018-04-23T10:02:57.627Z,2.60
2018-04-23T10:05:23.998Z,2.30
2018-04-23T10:07:50.531Z,2.57
2018-04-23T10:10:16.957Z,2.17
2018-04-23T10:12:43.392Z,2.60
2018-04-23T10:15:09.752Z,2.90
2018-04-23T10:17:53.263Z,2.47
2018-04-23T10:20:19.691Z,2.20
2018-04-23T10:22:46.102Z,2.67
2018-04-23T10:25:12.580Z,2.20
2018-04-23T10:27:39.112Z,2.30
2018-04-23T10:30:05.683Z,2.40
2018-04-23T10:32:32.318Z,1.70
2018-04-23T10:34:58.705Z,2.00
2018-04-23T10:37:25.140Z,1.70
2018-04-23T10:39:51.497Z,1.70
2018-04-23T10:42:17.865Z,1.90
2018-04-23T10:44:44.190Z,2.17
2018-04-23T10:47:10.742Z,1.70
2018-04-23T10:49:37.139Z,1.63
2018-04-23T10:52:03.525Z,1.83
2018-04-23T10:54:30.762Z,1.73
2018-04-23T10:57:00.387Z,1.77
2018-04-23T10:59:26.853Z,2.10
2018-04-23T11:01:53.396Z,2.97
2018-04-23T11:04:19.832Z,2.20
2018-04-23T11:06:46.642Z,2.10
2018-04-23T11:09:13.165Z,1.60
2018-04-23T11:11:40.059Z,1.53
2018-04-23T11:14:06.439Z,1.93
2018-04-23T11:16:33.038Z,2.40
2018-04-23T11:18:59.521Z,2.10
2018-04-23T11:21:25.901Z,2.30
2018-04-23T11:23:52.334Z,1.47
2018-04-23T11:26:18.713Z,2.53
2018-04-23T11:28:45.131Z,2.80
2018-04-23T11:31:11.613Z,3.50
2018-04-23T11:33:37.962Z,1.93
2018-04-23T11:36:04.434Z,2.10
2018-04-23T11:38:30.990Z,1.70
2018-04-23T11:40:57.419Z,1.53
2018-04-23T11:43:23.840Z,1.50
2018-04-23T11:45:50.450Z,1.67
2018-04-23T11:48:16.931Z,1.70
2018-04-23T11:50:43.357Z,1.80
2018-04-23T11:53:09.918Z,2.80
2018-04-23T11:55:36.345Z,2.00
2018-04-23T11:58:03.775Z,1.47
2018-04-23T12:00:30.157Z,1.53
2018-04-23T12:02:56.621Z,1.37
2018-04-23T12:05:23.035Z,1.60
2018-04-23T12:07:49.591Z,1.40
2018-04-23T12:10:16.086Z,1.60
2018-04-23T12:12:42.576Z,1.70
2018-04-23T12:15:08.974Z,1.63
2018-04-23T12:17:35.469Z,1.80
2018-04-23T12:20:01.997Z,1.70
2018-04-23T12:22:28.397Z,1.60
2018-04-23T12:24:54.744Z,1.83
2018-04-23T12:27:21.297Z,1.50
2018-04-23T12:29:47.726Z,1.60
2018-04-23T12:32:14.138Z,1.77
2018-04-23T12:34:40.563Z,3.27
2018-04-23T12:37:07.088Z,3.17
2018-04-23T12:39:33.463Z,2.00
2018-04-23T12:41:59.883Z,2.10
2018-04-23T12:44:26.441Z,1.67
2018-04-23T12:46:52.942Z,1.73
2018-04-23T12:49:19.420Z,1.87
2018-04-23T12:51:45.925Z,1.73
2018-04-23T12:54:12.442Z,1.90
2018-04-23T12:56:40.002Z,2.07
2018-04-23T12:59:06.562Z,1.77
2018-04-23T13:01:33.091Z,2.33
2018-04-23T13:03:59.603Z,2.00
2018-04-23T13:06:26.229Z,1.53
2018-04-23T13:08:52.823Z,1.97
2018-04-23T13:11:19.201Z,1.67
2018-04-23T13:13:45.644Z,1.57
2018-04-23T13:16:12.134Z,1.90
2018-04-23T13:18:38.503Z,2.00
2018-04-23T13:21:04.920Z,2.10
2018-04-23T13:23:31.289Z,1.87
2018-04-23T13:25:57.742Z,1.60
2018-04-23T13:28:24.244Z,1.90
2018-04-23T13:30:50.625Z,2.00
2018-04-23T13:33:17.111Z,1.30
2018-04-23T13:35:43.527Z,2.00
2018-04-23T13:38:10.006Z,2.00
2018-04-23T13:40:37.569Z,1.80
2018-04-23T13:43:06.152Z,1.70
2018-04-23T13:45:33.007Z,1.83
2018-04-23T13:47:59.620Z,2.00
2018-04-23T13:50:26.078Z,2.00
2018-04-23T13:52:52.665Z,2.00
2018-04-23T13:55:19.066Z,1.83
2018-04-23T13:57:46.659Z,1.77
2018-04-23T14:00:14.131Z,2.17
2018-04-23T14:02:42.199Z,2.40
2018-04-23T14:05:09.081Z,1.87
2018-04-23T14:07:37.523Z,1.73
2018-04-23T14:10:03.940Z,1.53
2018-04-23T14:12:30.419Z,11.03
2018-04-23T14:14:56.823Z,2.50
2018-04-23T14:17:23.351Z,2.10
2018-04-23T14:19:49.763Z,2.03
2018-04-23T14:22:16.247Z,1.90
2018-04-23T14:24:42.892Z,6.10
2018-04-23T14:27:09.498Z,3.47
2018-04-23T14:29:36.021Z,2.93
2018-04-23T14:32:02.701Z,3.10
2018-04-23T14:34:29.248Z,1.70
2018-04-23T14:36:55.730Z,2.10
2018-04-23T14:39:22.181Z,1.70
2018-04-23T14:41:48.792Z,4.30
2018-04-23T14:44:15.249Z,2.17
2018-04-23T14:46:41.783Z,2.07
2018-04-23T14:49:08.296Z,2.10
2018-04-23T14:51:34.688Z,2.23
2018-04-23T14:54:01.136Z,2.20
2018-04-23T14:56:27.493Z,1.97
2018-04-23T14:58:53.865Z,2.37
2018-04-23T15:01:20.344Z,1.60
2018-04-23T15:03:46.750Z,2.57
2018-04-23T15:06:13.272Z,2.00
2018-04-23T15:08:39.869Z,1.80
2018-04-23T15:11:06.414Z,1.80
2018-04-23T15:13:32.965Z,2.20
2018-04-23T15:15:59.570Z,2.17
2018-04-23T15:18:26.044Z,1.90
2018-04-23T15:20:52.527Z,2.67
2018-04-23T15:23:19.030Z,2.13
2018-04-23T15:25:45.675Z,1.70
2018-04-23T15:28:12.090Z,2.07
2018-04-23T15:30:38.633Z,2.20
2018-04-23T15:33:05.361Z,2.40
2018-04-23T15:35:31.865Z,2.90
2018-04-23T15:37:58.389Z,3.97
2018-04-23T15:40:24.760Z,2.87
2018-04-23T15:42:51.109Z,5.20
2018-04-23T15:45:17.640Z,4.83
2018-04-23T15:47:45.162Z,4.80
2018-04-23T15:50:11.869Z,3.47
2018-04-23T15:52:38.300Z,2.30
2018-04-23T15:55:04.795Z,3.13
2018-04-23T15:57:31.261Z,2.57
2018-04-23T15:59:58.015Z,2.50
2018-04-23T16:02:24.376Z,2.73
2018-04-23T16:04:50.858Z,2.27
2018-04-23T16:07:17.351Z,2.83
2018-04-23T16:09:43.726Z,2.60
2018-04-23T16:12:10.109Z,2.17
2018-04-23T16:14:36.515Z,2.30
2018-04-23T16:17:02.978Z,2.63
2018-04-23T16:19:29.421Z,3.17
2018-04-23T16:21:55.862Z,2.77
2018-04-23T16:24:22.360Z,2.47
2018-04-23T16:26:48.769Z,2.57
2018-04-23T16:29:15.241Z,2.50
2018-04-23T16:31:41.615Z,2.50
2018-04-23T16:34:07.969Z,2.63
2018-04-23T16:36:34.467Z,2.40
2018-04-23T16:39:00.949Z,2.93
2018-04-23T16:41:27.301Z,2.63
2018-04-23T16:43:53.774Z,2.60
2018-04-23T16:46:20.157Z,2.63
2018-04-23T16:48:46.621Z,2.40
2018-04-23T16:51:13.013Z,2.33
2018-04-23T16:53:39.435Z,2.60
2018-04-23T16:56:05.913Z,2.40
2018-04-23T16:58:32.604Z,2.20
2018-04-23T17:00:58.998Z,2.47
2018-04-23T17:03:25.401Z,2.70
2018-04-23T17:05:51.925Z,2.33
2018-04-23T17:08:18.776Z,2.43
2018-04-23T17:10:45.176Z,2.33
2018-04-23T17:13:11.703Z,2.80
2018-04-23T17:15:38.079Z,2.57
2018-04-23T17:18:05.101Z,2.43
2018-04-23T17:20:31.747Z,2.60
2018-04-23T17:22:58.669Z,2.90
2018-04-23T17:25:25.535Z,3.27
2018-04-23T17:27:52.045Z,2.80
2018-04-23T17:30:18.617Z,2.40
2018-04-23T17:32:44.986Z,3.07
2018-04-23T17:35:12.118Z,2.77
2018-04-23T17:37:39.607Z,2.93
2018-04-23T17:40:06.780Z,3.27
2018-04-23T17:42:33.497Z,3.30
2018-04-23T17:45:00.472Z,3.37
2018-04-23T17:47:27.031Z,3.77
2018-04-23T17:49:53.467Z,3.43
2018-04-23T17:52:20.851Z,3.43
2018-04-23T17:54:47.303Z,3.43
2018-04-23T17:57:13.840Z,4.27
2018-04-23T17:59:40.562Z,3.87
2018-04-23T18:02:07.089Z,4.00
2018-04-23T18:04:33.559Z,4.10
2018-04-23T18:07:00.205Z,4.10
2018-04-23T18:09:26.808Z,4.07
2018-04-23T18:11:53.869Z,3.87
2018-04-23T18:14:21.062Z,4.10
2018-04-23T18:16:47.599Z,4.30
2018-04-23T18:19:14.148Z,4.53
2018-04-23T18:21:40.623Z,4.10
2018-04-23T18:24:07.086Z,4.73
2018-04-23T18:26:33.716Z,3.93
2018-04-23T18:29:00.339Z,4.00
2018-04-23T18:31:26.762Z,4.33
2018-04-23T18:33:53.361Z,3.47
2018-04-23T18:36:19.853Z,3.93
2018-04-23T18:38:46.625Z,4.00
2018-04-23T18:41:13.269Z,3.87
2018-04-23T18:43:39.949Z,3.50
2018-04-23T18:46:07.462Z,3.60
2018-04-23T18:48:34.690Z,4.13
2018-04-23T18:51:01.191Z,3.30
2018-04-23T18:53:27.814Z,3.20
2018-04-23T18:55:54.377Z,3.03
2018-04-23T18:58:21.030Z,3.37
2018-04-23T19:00:47.663Z,3.53
2018-04-23T19:03:15.237Z,3.73
2018-04-23T19:05:41.916Z,3.63
2018-04-23T19:08:08.522Z,3.67
2018-04-23T19:10:35.141Z,3.53
2018-04-23T19:13:01.583Z,3.40
2018-04-23T19:15:28.191Z,3.47
2018-04-23T19:17:55.632Z,3.93
2018-04-23T19:20:22.029Z,3.73
2018-04-23T19:22:48.533Z,3.90
2018-04-23T19:25:15.474Z,4.13
2018-04-23T19:27:41.923Z,3.83
2018-04-23T19:30:08.617Z,3.87
2018-04-23T19:32:35.110Z,3.77
2018-04-23T19:35:01.611Z,3.57
2018-04-23T19:37:28.066Z,3.43
2018-04-23T19:39:54.464Z,3.90
2018-04-23T19:42:20.997Z,3.60
2018-04-23T19:44:47.918Z,4.23
2018-04-23T19:47:14.365Z,3.97
2018-04-23T19:49:40.857Z,3.60
2018-04-23T19:52:07.306Z,3.77
2018-04-23T19:54:33.851Z,3.60
2018-04-23T19:57:00.247Z,3.97
2018-04-23T19:59:26.686Z,3.47
2018-04-23T20:01:53.096Z,3.70
2018-04-23T20:04:19.470Z,4.17
2018-04-23T20:06:45.958Z,3.57
2018-04-23T20:09:12.450Z,3.80
2018-04-23T20:11:38.820Z,3.87
2018-04-23T20:14:05.458Z,3.80
2018-04-23T20:16:31.905Z,4.00
2018-04-23T20:18:58.384Z,3.80
2018-04-23T20:21:25.102Z,3.53
2018-04-23T20:23:51.472Z,4.03
2018-04-23T20:26:17.806Z,3.53
2018-04-23T20:28:44.424Z,4.13
2018-04-23T20:31:10.960Z,3.93
2018-04-23T20:33:37.350Z,4.30
2018-04-23T20:36:03.719Z,4.10
2018-04-23T20:38:30.251Z,3.40
2018-04-23T20:40:56.771Z,3.97
2018-04-23T20:43:23.182Z,4.40
2018-04-23T20:45:49.684Z,3.67
2018-04-23T20:48:16.158Z,4.00
2018-04-23T20:50:42.624Z,3.47
2018-04-23T20:53:09.041Z,4.10
2018-04-23T20:55:35.511Z,3.67
2018-04-23T20:58:01.994Z,3.80
2018-04-23T21:00:28.395Z,3.57
2018-04-23T21:02:54.827Z,4.07
2018-04-23T21:05:21.232Z,3.97
2018-04-23T21:07:47.751Z,3.60
2018-04-23T21:10:14.112Z,4.00
2018-04-23T21:12:40.493Z,3.90
2018-04-23T21:15:07.108Z,4.37
2018-04-23T21:17:33.536Z,3.77
2018-04-23T21:19:59.855Z,3.90
2018-04-23T21:22:26.259Z,3.90
2018-04-23T21:24:52.749Z,3.93
2018-04-23T21:27:19.092Z,3.80
2018-04-23T21:29:45.572Z,3.93
2018-04-23T21:32:11.987Z,4.00
2018-04-23T21:34:38.358Z,4.40
2018-04-23T21:37:04.836Z,3.97
2018-04-23T21:39:31.314Z,3.67
2018-04-23T21:41:57.708Z,4.30
2018-04-23T21:44:24.096Z,4.20
2018-04-23T21:46:50.762Z,3.70
2018-04-23T21:49:17.199Z,4.03
2018-04-23T21:51:43.640Z,3.77
2018-04-23T21:54:09.992Z,4.23
2018-04-23T21:56:36.473Z,4.30
2018-04-23T21:59:03.076Z,3.70
2018-04-23T22:01:29.428Z,4.07
2018-04-23T22:03:55.882Z,4.00
2018-04-23T22:06:22.412Z,4.37
2018-04-23T22:08:48.891Z,3.90
2018-04-23T22:11:15.283Z,4.03
2018-04-23T22:13:41.878Z,3.90
2018-04-23T22:16:08.312Z,4.33
2018-04-23T22:18:34.700Z,4.40
2018-04-23T22:21:01.070Z,5.00
2018-04-23T22:23:27.499Z,4.13
2018-04-23T22:25:53.826Z,4.50
2018-04-23T22:28:20.246Z,4.07
2018-04-23T22:30:46.557Z,4.10
2018-04-23T22:33:12.888Z,4.40
2018-04-23T22:35:39.285Z,4.57
2018-04-23T22:38:05.791Z,4.23
2018-04-23T22:40:32.164Z,4.33
2018-04-23T22:42:58.628Z,4.77
2018-04-23T22:45:25.021Z,4.47
2018-04-23T22:47:51.395Z,4.70
2018-04-23T22:50:17.849Z,4.40
2018-04-23T22:52:44.229Z,4.43
2018-04-23T22:55:10.620Z,3.77
2018-04-23T22:57:37.090Z,4.07
2018-04-23T23:00:03.652Z,4.10
2018-04-23T23:02:30.139Z,4.53
2018-04-23T23:04:56.547Z,4.73
2018-04-23T23:07:22.951Z,4.57
2018-04-23T23:09:49.379Z,3.60
2018-04-23T23:12:15.876Z,5.10
2018-04-23T23:14:42.249Z,5.60
2018-04-23T23:17:08.930Z,4.47
2018-04-23T23:19:35.359Z,5.33
2018-04-23T23:22:01.963Z,5.30
2018-04-23T23:24:28.287Z,5.23
2018-04-23T23:26:54.777Z,4.83
2018-04-23T23:29:21.233Z,4.87
2018-04-23T23:31:47.626Z,4.70
2018-04-23T23:34:14.055Z,4.80
2018-04-23T23:36:40.446Z,5.60
2018-04-23T23:39:06.783Z,5.07
2018-04-23T23:41:33.266Z,5.03
2018-04-23T23:43:59.675Z,5.07
2018-04-23T23:46:26.032Z,4.83
2018-04-23T23:48:52.459Z,5.40
2018-04-23T23:51:18.960Z,5.00
2018-04-23T23:53:45.328Z,5.03
2018-04-23T23:56:11.665Z,5.17
2018-04-23T23:58:38.061Z,4.53
